createdAt,value
2019-03-18T00:01:04.445Z,99700.96
2019-03-18T00:04:08.228Z,99693.97
2019-03-18T00:07:12.050Z,99699.55
2019-03-18T00:10:15.931Z,99695.70
2019-03-18T00:13:19.716Z,99702.45
2019-03-18T00:16:23.526Z,99704.37
2019-03-18T00:19:27.344Z,99719.96
2019-03-18T00:22:31.172Z,99720.40
2019-03-18T00:25:34.988Z,99736.99
2019-03-18T00:28:38.824Z,99750.19
2019-03-18T00:31:42.641Z,99739.77
2019-03-18T00:34:46.480Z,99744.91
2019-03-18T00:37:50.367Z,99744.36
2019-03-18T00:40:54.239Z,99744.98
2019-03-18T00:43:58.033Z,99739.84
2019-03-18T00:47:01.835Z,99742.70
2019-03-18T00:50:06.679Z,99740.20
2019-03-18T00:53:10.580Z,99755.60
2019-03-18T00:56:14.363Z,99765.06
2019-03-18T00:59:18.187Z,99777.21
2019-03-18T01:02:21.967Z,99774.39
2019-03-18T01:05:25.867Z,99768.92
2019-03-18T01:08:29.715Z,99772.63
2019-03-18T01:11:33.525Z,99786.97
2019-03-18T01:14:37.319Z,99770.27
2019-03-18T01:17:41.182Z,99775.83
2019-03-18T01:20:45.043Z,99781.48
2019-03-18T01:23:48.959Z,99772.23
2019-03-18T01:26:52.740Z,99779.98
2019-03-18T01:29:56.558Z,99781.86
2019-03-18T01:33:00.356Z,99780.61
2019-03-18T01:36:04.259Z,99773.81
2019-03-18T01:39:08.418Z,99782.71
2019-03-18T01:42:12.309Z,99775.60
2019-03-18T01:45:16.185Z,99785.17
2019-03-18T01:48:20.006Z,99784.20
2019-03-18T01:51:23.799Z,99775.27
2019-03-18T01:54:31.119Z,99770.02
2019-03-18T01:57:34.876Z,99774.14
2019-03-18T02:00:38.925Z,99772.33
2019-03-18T02:03:42.715Z,99782.45
2019-03-18T02:06:46.621Z,99783.77
2019-03-18T02:09:50.428Z,99801.77
2019-03-18T02:12:54.246Z,99793.75
2019-03-18T02:15:58.048Z,99789.86
2019-03-18T02:19:01.864Z,99786.66
2019-03-18T02:22:05.669Z,99795.50
2019-03-18T02:25:09.639Z,99798.66
2019-03-18T02:28:13.484Z,99793.20
2019-03-18T02:31:17.355Z,99788.13
2019-03-18T02:34:21.158Z,99786.38
2019-03-18T02:37:24.933Z,99791.88
2019-03-18T02:40:28.753Z,99788.92
2019-03-18T02:43:32.540Z,99818.95
2019-03-18T02:46:36.379Z,99818.55
2019-03-18T02:49:40.176Z,99803.81
2019-03-18T02:52:43.984Z,99809.25
2019-03-18T02:55:47.776Z,99808.25
2019-03-18T02:58:51.682Z,99821.00
2019-03-18T03:01:55.492Z,99828.84
2019-03-18T03:04:59.283Z,99832.03
2019-03-18T03:08:03.174Z,99824.46
2019-03-18T03:11:06.987Z,99814.52
2019-03-18T03:14:10.788Z,99824.95
2019-03-18T03:17:14.596Z,99809.08
2019-03-18T03:20:18.390Z,99817.96
2019-03-18T03:23:22.209Z,99829.00
2019-03-18T03:26:26.017Z,99833.28
2019-03-18T03:29:29.921Z,99834.49
2019-03-18T03:32:33.758Z,99830.47
2019-03-18T03:35:37.572Z,99831.16
2019-03-18T03:38:41.378Z,99831.09
2019-03-18T03:41:45.187Z,99826.44
2019-03-18T03:44:48.953Z,99844.27
2019-03-18T03:47:52.749Z,99858.59
2019-03-18T03:50:56.555Z,99864.01
2019-03-18T03:54:00.423Z,99854.74
2019-03-18T03:57:04.355Z,99873.41
2019-03-18T04:00:09.374Z,99870.02
2019-03-18T04:03:13.338Z,99867.48
2019-03-18T04:06:17.416Z,99868.16
2019-03-18T04:09:21.340Z,99868.56
2019-03-18T04:12:25.144Z,99867.54
2019-03-18T04:15:29.009Z,99876.02
2019-03-18T04:18:32.849Z,99876.70
2019-03-18T04:21:36.714Z,99886.54
2019-03-18T04:24:40.603Z,99915.96
2019-03-18T04:27:44.446Z,99902.05
2019-03-18T04:30:48.393Z,99896.61
2019-03-18T04:33:52.208Z,99904.23
2019-03-18T04:36:56.154Z,99914.20
2019-03-18T04:39:59.944Z,99907.13
2019-03-18T04:43:03.789Z,99909.13
2019-03-18T04:46:07.601Z,99920.42
2019-03-18T04:49:11.505Z,99928.41
2019-03-18T04:52:15.305Z,99941.02
2019-03-18T04:55:19.116Z,99938.06
2019-03-18T04:58:22.940Z,99945.02
2019-03-18T05:01:26.810Z,99930.36
2019-03-18T05:04:30.796Z,99924.03
2019-03-18T05:07:34.615Z,99922.63
2019-03-18T05:10:38.456Z,99918.62
2019-03-18T05:13:42.427Z,99940.13
2019-03-18T05:16:46.282Z,99970.64
2019-03-18T05:19:50.152Z,99950.42
2019-03-18T05:22:54.043Z,99948.50
2019-03-18T05:25:57.858Z,99941.05
2019-03-18T05:29:01.697Z,99953.50
2019-03-18T05:32:05.513Z,99951.77
2019-03-18T05:35:09.449Z,99945.25
2019-03-18T05:38:13.263Z,99959.48
2019-03-18T05:41:17.076Z,99962.77
2019-03-18T05:44:20.895Z,99971.42
2019-03-18T05:47:24.785Z,99974.45
2019-03-18T05:50:28.642Z,99983.16
2019-03-18T05:53:32.526Z,99987.94
2019-03-18T05:56:36.358Z,99989.67
2019-03-18T05:59:40.213Z,99985.59
2019-03-18T06:02:46.772Z,100000.59
2019-03-18T06:05:49.634Z,99995.63
2019-03-18T06:08:53.453Z,99999.47
2019-03-18T06:11:57.379Z,100029.58
2019-03-18T06:15:01.180Z,100025.89
2019-03-18T06:18:05.135Z,100021.46
2019-03-18T06:21:08.920Z,100022.70
2019-03-18T06:24:12.788Z,100026.91
2019-03-18T06:27:16.597Z,100028.73
2019-03-18T06:30:20.430Z,100039.38
2019-03-18T06:33:24.224Z,100047.02
2019-03-18T06:36:28.097Z,100047.36
2019-03-18T06:39:31.903Z,100032.79
2019-03-18T06:42:35.719Z,100038.87
2019-03-18T06:45:39.576Z,100040.89
2019-03-18T06:48:43.414Z,100049.07
2019-03-18T06:51:47.242Z,100039.19
2019-03-18T06:54:51.060Z,100062.36
2019-03-18T06:57:54.908Z,100057.81
2019-03-18T07:00:58.752Z,100065.41
2019-03-18T07:04:02.556Z,100065.89
2019-03-18T07:07:06.345Z,100069.41
2019-03-18T07:10:10.419Z,100072.97
2019-03-18T07:13:14.334Z,100080.13
2019-03-18T07:16:18.158Z,100080.86
2019-03-18T07:19:21.975Z,100091.17
2019-03-18T07:22:25.809Z,100094.88
2019-03-18T07:25:29.631Z,100097.26
2019-03-18T07:28:33.609Z,100103.36
2019-03-18T07:31:37.435Z,100098.09
2019-03-18T07:34:41.284Z,100100.33
2019-03-18T07:37:45.107Z,100106.22
2019-03-18T07:40:48.913Z,100115.78
2019-03-18T07:43:52.731Z,100117.12
2019-03-18T07:46:56.553Z,100123.44
2019-03-18T07:50:00.509Z,100118.00
2019-03-18T07:53:04.369Z,100134.26
2019-03-18T07:56:08.258Z,100144.63
2019-03-18T07:59:12.093Z,100160.44
2019-03-18T08:02:15.900Z,100155.33
2019-03-18T08:05:19.710Z,100162.16
2019-03-18T08:08:23.645Z,100175.78
2019-03-18T08:11:27.414Z,100180.11
2019-03-18T08:14:31.312Z,100187.44
2019-03-18T08:17:35.104Z,100186.48
2019-03-18T08:20:38.909Z,100196.20
2019-03-18T08:23:42.708Z,100209.80
2019-03-18T08:26:46.593Z,100214.66
2019-03-18T08:29:50.388Z,100215.14
2019-03-18T08:32:54.248Z,100225.16
2019-03-18T08:35:58.072Z,100230.40
2019-03-18T08:39:01.975Z,100239.95
2019-03-18T08:42:05.801Z,100239.46
2019-03-18T08:45:09.729Z,100244.94
2019-03-18T08:48:13.552Z,100247.16
2019-03-18T08:51:17.372Z,100266.66
2019-03-18T08:54:21.389Z,100279.92
2019-03-18T08:57:25.241Z,100279.48
2019-03-18T09:00:29.140Z,100271.88
2019-03-18T09:03:32.964Z,100279.11
2019-03-18T09:06:36.785Z,100279.85
2019-03-18T09:09:40.645Z,100275.42
2019-03-18T09:12:44.605Z,100273.75
2019-03-18T09:15:48.444Z,100291.97
2019-03-18T09:18:52.270Z,100358.53
2019-03-18T09:21:56.090Z,100328.64
2019-03-18T09:24:59.932Z,100326.82
2019-03-18T09:28:03.835Z,100330.37
2019-03-18T09:31:07.707Z,100328.91
2019-03-18T09:34:11.537Z,100327.45
2019-03-18T09:37:15.337Z,100338.23
2019-03-18T09:40:19.361Z,100377.33
2019-03-18T09:43:23.178Z,100380.20
2019-03-18T09:46:27.088Z,100373.27
2019-03-18T09:49:30.987Z,100378.86
2019-03-18T09:52:34.901Z,100390.40
2019-03-18T09:55:38.826Z,100382.33
2019-03-18T09:58:42.677Z,100392.89
2019-03-18T10:01:46.495Z,100407.02
2019-03-18T10:04:50.351Z,100416.39
2019-03-18T10:07:54.518Z,100415.76
2019-03-18T10:10:58.446Z,100427.66
2019-03-18T10:14:02.425Z,100433.27
2019-03-18T10:17:09.792Z,100448.55
2019-03-18T10:20:12.098Z,100443.34
2019-03-18T10:23:16.020Z,100449.67
2019-03-18T10:26:19.906Z,100449.31
2019-03-18T10:29:23.761Z,100460.82
2019-03-18T10:32:27.624Z,100447.63
2019-03-18T10:35:31.442Z,100450.00
2019-03-18T10:38:35.280Z,100464.17
2019-03-18T10:41:39.133Z,100468.86
2019-03-18T10:44:42.932Z,100470.61
2019-03-18T10:47:46.842Z,100455.66
2019-03-18T10:50:50.767Z,100484.70
2019-03-18T10:53:54.591Z,100474.31
2019-03-18T10:56:58.450Z,100485.23
2019-03-18T11:00:02.285Z,100491.67
2019-03-18T11:03:06.264Z,100492.62
2019-03-18T11:06:10.077Z,100481.88
2019-03-18T11:09:13.925Z,100497.05
2019-03-18T11:12:17.838Z,100499.80
2019-03-18T11:15:21.722Z,100500.10
2019-03-18T11:18:25.537Z,100510.95
2019-03-18T11:21:29.337Z,100516.32
2019-03-18T11:24:33.181Z,100514.77
2019-03-18T11:27:38.168Z,100527.10
2019-03-18T11:30:42.004Z,100526.49
2019-03-18T11:33:45.853Z,100518.45
2019-03-18T11:36:49.670Z,100538.89
2019-03-18T11:39:53.520Z,100543.45
2019-03-18T11:42:57.323Z,100542.37
2019-03-18T11:46:01.155Z,100560.30
2019-03-18T11:49:05.128Z,100570.80
2019-03-18T11:52:09.082Z,100575.19
2019-03-18T11:55:14.594Z,100587.74
2019-03-18T11:58:18.419Z,100585.56
2019-03-18T12:01:22.254Z,100590.33
2019-03-18T12:04:26.123Z,100597.00
2019-03-18T12:07:29.956Z,100591.86
2019-03-18T12:10:33.869Z,100605.99
2019-03-18T12:13:37.682Z,100604.14
2019-03-18T12:16:41.518Z,100606.76
2019-03-18T12:19:45.334Z,100608.78
2019-03-18T12:22:49.346Z,100612.20
2019-03-18T12:25:53.212Z,100613.69
2019-03-18T12:28:57.138Z,100624.56
2019-03-18T12:32:00.987Z,100635.15
2019-03-18T12:35:05.069Z,100646.26
2019-03-18T12:38:08.905Z,100645.92
2019-03-18T12:41:12.725Z,100652.91
2019-03-18T12:44:16.612Z,100655.09
2019-03-18T12:47:20.421Z,100669.62
2019-03-18T12:50:42.943Z,100689.69
2019-03-18T12:53:29.969Z,100681.15
2019-03-18T12:56:33.919Z,100674.27
2019-03-18T12:59:39.130Z,100686.39
2019-03-18T13:02:43.006Z,100691.34
2019-03-18T13:05:46.882Z,100690.30
2019-03-18T13:08:50.691Z,100701.87
2019-03-18T13:11:54.501Z,100700.65
2019-03-18T13:14:58.319Z,100695.67
2019-03-18T13:18:02.125Z,100701.30
2019-03-18T13:21:08.233Z,100695.94
2019-03-18T13:24:11.604Z,100705.77
2019-03-18T13:27:15.497Z,100714.48
2019-03-18T13:30:19.462Z,100719.31
2019-03-18T13:33:23.280Z,100734.88
2019-03-18T13:36:27.111Z,100741.27
2019-03-18T13:39:30.925Z,100738.00
2019-03-18T13:42:34.754Z,100758.77
2019-03-18T13:45:38.662Z,100760.97
2019-03-18T13:48:42.481Z,100800.04
2019-03-18T13:51:46.298Z,100799.16
2019-03-18T13:54:50.111Z,100809.39
2019-03-18T13:57:53.933Z,100810.23
2019-03-18T14:00:57.721Z,100807.97
2019-03-18T14:04:01.563Z,100800.91
2019-03-18T14:07:05.566Z,100823.62
2019-03-18T14:10:11.281Z,100823.62
2019-03-18T14:13:15.206Z,100817.39
2019-03-18T14:16:19.047Z,100833.06
2019-03-18T14:19:22.839Z,100827.97
2019-03-18T14:22:26.672Z,100833.33
2019-03-18T14:25:30.567Z,100834.45
2019-03-18T14:28:34.420Z,100850.80
2019-03-18T14:31:38.254Z,100853.67
2019-03-18T14:34:42.036Z,100864.28
2019-03-18T14:37:45.950Z,100865.71
2019-03-18T14:40:49.778Z,100870.03
2019-03-18T14:43:53.624Z,100886.53
2019-03-18T14:46:57.435Z,100873.72
2019-03-18T14:50:01.286Z,100897.87
2019-03-18T14:53:05.149Z,100892.16
2019-03-18T14:56:08.978Z,100903.37
2019-03-18T14:59:12.829Z,100897.83
2019-03-18T15:02:16.678Z,100905.09
2019-03-18T15:05:20.616Z,100914.30
2019-03-18T15:08:24.421Z,100922.05
2019-03-18T15:11:28.342Z,100942.47
2019-03-18T15:14:32.173Z,100935.17
2019-03-18T15:17:35.979Z,100952.98
2019-03-18T15:20:39.775Z,100955.95
2019-03-18T15:23:43.590Z,100965.87
2019-03-18T15:26:47.413Z,100963.23
2019-03-18T15:29:51.224Z,100974.03
2019-03-18T15:32:55.036Z,100974.22
2019-03-18T15:35:58.876Z,100978.84
2019-03-18T15:39:05.573Z,100976.76
2019-03-18T15:42:08.236Z,100982.77
2019-03-18T15:45:12.902Z,100996.22
2019-03-18T15:48:16.732Z,101005.27
2019-03-18T15:51:20.664Z,101006.48
2019-03-18T15:54:24.529Z,100999.63
2019-03-18T15:57:29.816Z,101017.09
2019-03-18T16:00:34.033Z,101020.13
2019-03-18T16:03:38.031Z,101033.19
2019-03-18T16:06:41.902Z,101039.83
2019-03-18T16:09:45.738Z,101034.00
2019-03-18T16:12:49.714Z,101044.82
2019-03-18T16:15:53.543Z,101066.20
2019-03-18T16:18:57.385Z,101047.71
2019-03-18T16:22:01.202Z,101046.34
2019-03-18T16:25:05.317Z,101057.47
2019-03-18T16:28:09.201Z,101070.33
2019-03-18T16:31:13.041Z,101069.98
2019-03-18T16:34:16.884Z,101075.70
2019-03-18T16:37:20.703Z,101087.46
2019-03-18T16:40:24.625Z,101091.00
2019-03-18T16:43:28.461Z,101120.05
2019-03-18T16:46:32.276Z,101113.72
2019-03-18T16:49:36.137Z,101111.58
2019-03-18T16:52:39.958Z,101116.59
2019-03-18T16:55:43.785Z,101127.30
2019-03-18T16:58:47.609Z,101129.48
2019-03-18T17:01:51.413Z,101140.53
2019-03-18T17:04:55.328Z,101137.56
2019-03-18T17:07:59.241Z,101146.77
2019-03-18T17:11:03.261Z,101161.03
2019-03-18T17:14:07.101Z,101157.94
2019-03-18T17:17:10.963Z,101172.48
2019-03-18T17:20:14.855Z,101178.31
2019-03-18T17:23:18.696Z,101174.88
2019-03-18T17:26:22.520Z,101186.73
2019-03-18T17:29:26.509Z,101187.70
2019-03-18T17:32:30.336Z,101196.88
2019-03-18T17:35:34.243Z,101206.55
2019-03-18T17:38:38.078Z,101207.92
2019-03-18T17:41:41.947Z,101200.91
2019-03-18T17:44:45.732Z,101207.49
2019-03-18T17:47:49.618Z,101211.92
2019-03-18T17:50:53.439Z,101215.41
2019-03-18T17:53:57.265Z,101240.94
2019-03-18T17:57:07.192Z,101233.91
2019-03-18T18:00:08.038Z,101240.50
2019-03-18T18:03:11.908Z,101245.36
2019-03-18T18:06:15.689Z,101246.22
2019-03-18T18:09:19.516Z,101263.39
2019-03-18T18:12:23.306Z,101265.56
2019-03-18T18:15:27.309Z,101288.01
2019-03-18T18:18:31.249Z,101275.27
2019-03-18T18:21:35.061Z,101287.13
2019-03-18T18:24:38.899Z,101287.14
2019-03-18T18:27:42.811Z,101292.44
2019-03-18T18:30:46.650Z,101296.80
2019-03-18T18:33:50.468Z,101306.88
2019-03-18T18:36:54.386Z,101310.41
2019-03-18T18:39:58.204Z,101319.63
2019-03-18T18:43:02.014Z,101329.30
2019-03-18T18:46:05.918Z,101328.43
2019-03-18T18:49:09.719Z,101340.70
2019-03-18T18:52:13.533Z,101354.77
2019-03-18T18:55:17.351Z,101342.47
2019-03-18T18:58:21.161Z,101345.98
2019-03-18T19:01:25.057Z,101353.91
2019-03-18T19:04:28.891Z,101360.94
2019-03-18T19:07:32.706Z,101365.33
2019-03-18T19:10:36.613Z,101378.48
2019-03-18T19:13:40.502Z,101382.44
2019-03-18T19:16:44.273Z,101378.50
2019-03-18T19:19:48.090Z,101385.48
2019-03-18T19:22:52.062Z,101385.95
2019-03-18T19:25:55.972Z,101396.48
2019-03-18T19:28:59.799Z,101402.63
2019-03-18T19:32:03.635Z,101405.67
2019-03-18T19:35:07.707Z,101415.36
2019-03-18T19:38:11.607Z,101439.06
2019-03-18T19:41:15.485Z,101427.21
2019-03-18T19:44:19.344Z,101435.48
2019-03-18T19:47:23.252Z,101439.06
2019-03-18T19:50:27.079Z,101441.70
2019-03-18T19:53:30.938Z,101441.26
2019-03-18T19:56:34.787Z,101451.35
2019-03-18T19:59:38.595Z,101436.87
2019-03-18T20:02:42.532Z,101443.47
2019-03-18T20:05:46.348Z,101446.96
2019-03-18T20:08:50.191Z,101455.74
2019-03-18T20:11:54.110Z,101471.11
2019-03-18T20:14:57.959Z,101471.56
2019-03-18T20:18:01.857Z,101465.34
2019-03-18T20:21:05.838Z,101468.03
2019-03-18T20:24:09.650Z,101467.16
2019-03-18T20:27:13.468Z,101482.95
2019-03-18T20:30:17.686Z,101491.74
2019-03-18T20:33:21.517Z,101497.78
2019-03-18T20:36:25.353Z,101501.31
2019-03-18T20:39:29.169Z,101504.89
2019-03-18T20:42:32.998Z,101506.97
2019-03-18T20:45:36.815Z,101507.41
2019-03-18T20:48:40.645Z,101512.64
2019-03-18T20:51:44.502Z,101512.70
2019-03-18T20:54:48.316Z,101529.69
2019-03-18T20:57:52.287Z,101536.34
2019-03-18T21:00:56.331Z,101541.98
2019-03-18T21:04:00.140Z,101546.77
2019-03-18T21:07:04.003Z,101550.30
2019-03-18T21:10:08.475Z,101557.41
2019-03-18T21:13:12.382Z,101562.65
2019-03-18T21:16:16.294Z,101562.66
2019-03-18T21:19:20.135Z,101558.55
2019-03-18T21:22:23.975Z,101574.49
2019-03-18T21:25:27.941Z,101574.07
2019-03-18T21:28:40.770Z,101570.05
2019-03-18T21:31:37.383Z,101575.22
2019-03-18T21:34:41.192Z,101583.65
2019-03-18T21:37:45.070Z,101599.88
2019-03-18T21:40:48.867Z,101594.68
2019-03-18T21:43:52.791Z,101600.39
2019-03-18T21:46:56.642Z,101603.47
2019-03-18T21:50:00.580Z,101604.70
2019-03-18T21:53:04.639Z,101611.80
2019-03-18T21:56:08.530Z,101608.72
2019-03-18T21:59:12.371Z,101606.45
2019-03-18T22:02:16.205Z,101610.89
2019-03-18T22:05:20.137Z,101616.95
2019-03-18T22:08:23.981Z,101623.00
2019-03-18T22:11:27.819Z,101624.77
2019-03-18T22:14:31.665Z,101632.21
2019-03-18T22:17:35.482Z,101631.78
2019-03-18T22:20:39.352Z,101632.21
2019-03-18T22:23:43.224Z,101635.25
2019-03-18T22:26:47.110Z,101637.92
2019-03-18T22:29:50.976Z,101638.88
2019-03-18T22:32:54.809Z,101652.49
2019-03-18T22:35:58.669Z,101651.95
2019-03-18T22:39:02.546Z,101659.73
2019-03-18T22:42:06.444Z,101665.08
2019-03-18T22:45:10.606Z,101658.06
2019-03-18T22:48:14.441Z,101667.60
2019-03-18T22:51:18.458Z,101665.40
2019-03-18T22:54:22.344Z,101666.30
2019-03-18T22:57:26.173Z,101669.03
2019-03-18T23:00:46.940Z,101670.77
2019-03-18T23:03:50.923Z,101672.45
2019-03-18T23:06:54.805Z,101681.29
2019-03-18T23:09:58.638Z,101687.30
2019-03-18T23:13:02.541Z,101698.36
2019-03-18T23:16:06.398Z,101694.70
2019-03-18T23:19:10.236Z,101702.47
2019-03-18T23:22:14.179Z,101705.13
2019-03-18T23:25:18.124Z,101719.48
2019-03-18T23:28:21.955Z,101724.35
2019-03-18T23:31:25.755Z,101731.38
2019-03-18T23:34:29.589Z,101727.94
2019-03-18T23:37:33.393Z,101730.34
2019-03-18T23:40:37.304Z,101735.44
2019-03-18T23:43:41.212Z,101736.25
2019-03-18T23:46:45.027Z,101732.04
2019-03-18T23:49:48.911Z,101732.69
2019-03-18T23:52:52.727Z,101733.08
2019-03-18T23:55:56.550Z,101736.53
2019-03-18T23:59:00.466Z,101737.85
